Time;durP1;ratioP1;P1;durP2;ratioP2;P2;SDS_P1;SDS_P2;PMS_P1;PMS_P2;Temp;Humidity;BMP_temperature;BMP_pressure;BME280_temperature;BME280_humidity;BME280_pressure;Samples;Min_cycle;Max_cycle;Signal;HPM_P1;HPM_P2
2022/09/23 20:43:14;;;;;;;0.00;0.00;;;15.10;87.00;;;;;;4971075;28;20041;-75
2022/09/23 20:45:54;;;;;;;0.40;0.40;;;15.10;87.30;;;;;;4961595;28;20035;-74
2022/09/23 20:48:21;;;;;;;0.10;0.10;;;15.10;87.40;;;;;;4976159;28;20041;-75
2022/09/23 20:50:50;;;;;;;0.00;0.00;;;15.10;86.90;;;;;;4977031;28;20097;-75
2022/09/23 20:53:17;;;;;;;0.20;0.20;;;15.10;87.10;;;;;;4974532;28;20053;-74
2022/09/23 20:55:50;;;;;;;0.00;0.00;;;15.00;87.10;;;;;;4975433;28;20387;-74
2022/09/23 20:58:17;;;;;;;0.30;0.30;;;15.00;87.20;;;;;;4974654;28;20033;-74
2022/09/23 21:00:45;;;;;;;0.00;0.00;;;14.90;87.20;;;;;;4973976;28;20030;-74
2022/09/23 21:03:12;;;;;;;0.00;0.00;;;14.80;87.80;;;;;;4957465;28;20035;-74
2022/09/23 21:05:41;;;;;;;0.20;0.20;;;14.60;88.80;;;;;;4974031;28;20493;-74
2022/09/23 21:08:07;;;;;;;0.30;0.30;;;14.50;88.10;;;;;;4975729;28;20039;-74
2022/09/23 21:10:34;;;;;;;0.13;0.13;;;14.40;88.20;;;;;;4976289;28;20042;-74
2022/09/23 21:13:01;;;;;;;0.00;0.00;;;14.40;88.40;;;;;;4975051;28;20066;-74
2022/09/23 21:15:26;;;;;;;0.10;0.10;;;14.40;87.90;;;;;;4976758;28;20026;-74
2022/09/23 21:17:52;;;;;;;0.00;0.00;;;14.30;87.90;;;;;;4975331;28;20035;-74
2022/09/23 21:20:18;;;;;;;0.10;0.10;;;14.30;89.00;;;;;;4975394;28;20086;-74
2022/09/23 21:22:47;;;;;;;0.00;0.00;;;14.20;88.60;;;;;;4976797;28;20062;-74
2022/09/23 21:25:13;;;;;;;0.60;0.52;;;14.20;87.60;;;;;;4976847;28;20061;-74
2022/09/23 21:27:40;;;;;;;0.20;0.20;;;14.10;88.40;;;;;;4976263;28;20418;-74
2022/09/23 21:30:07;;;;;;;0.10;0.10;;;14.10;88.30;;;;;;4976775;28;20038;-74
2022/09/23 21:32:32;;;;;;;0.05;0.05;;;14.10;89.10;;;;;;4976673;28;20078;-74
2022/09/23 21:34:58;;;;;;;0.20;0.10;;;14.10;88.30;;;;;;4976051;28;20443;-74
2022/09/23 21:37:24;;;;;;;0.00;0.00;;;14.20;87.90;;;;;;4976797;28;20084;-74
2022/09/23 21:42:39;;;;;;;0.08;0.05;;;14.40;88.30;;;;;;4976446;28;20049;-74
2022/09/23 21:45:05;;;;;;;0.10;0.10;;;14.40;87.50;;;;;;4976280;28;20338;-74
2022/09/23 21:47:31;;;;;;;0.20;0.20;;;14.50;86.10;;;;;;4976515;28;20050;-74
2022/09/23 21:49:57;;;;;;;0.08;0.08;;;14.50;86.40;;;;;;4975893;28;20035;-74
2022/09/23 21:52:33;;;;;;;0.40;0.40;;;14.60;86.30;;;;;;4972574;28;20105;-74
2022/09/23 21:54:59;;;;;;;0.00;0.00;;;14.60;83.50;;;;;;4955541;29;20031;-75
2022/09/23 21:57:29;;;;;;;0.93;0.68;;;14.60;85.00;;;;;;4971277;28;20433;-74
2022/09/23 21:59:55;;;;;;;2.72;1.08;;;14.70;84.00;;;;;;4974724;28;20027;-74
2022/09/23 22:02:22;;;;;;;0.03;0.03;;;14.80;83.00;;;;;;4958869;28;20048;-74
2022/09/23 22:04:47;;;;;;;0.00;0.00;;;14.80;85.90;;;;;;4975571;28;20070;-74
2022/09/23 22:07:13;;;;;;;0.00;0.00;;;14.70;85.30;;;;;;4976154;28;20055;-74
2022/09/23 22:09:39;;;;;;;0.05;0.00;;;14.70;86.00;;;;;;4960040;28;20342;-74
2022/09/23 22:12:08;;;;;;;0.00;0.00;;;14.60;87.30;;;;;;4975713;28;20105;-74
2022/09/23 22:14:34;;;;;;;0.10;0.10;;;14.50;87.70;;;;;;4975324;28;20089;-74
2022/09/23 22:17:02;;;;;;;0.00;0.00;;;14.50;86.10;;;;;;4976554;28;20041;-75
2022/09/23 22:19:37;;;;;;;0.00;0.00;;;14.50;86.90;;;;;;4974994;28;20465;-75
2022/09/23 22:22:12;;;;;;;0.00;0.00;;;14.50;85.90;;;;;;4971947;28;20366;-74
2022/09/23 22:24:42;;;;;;;0.08;0.08;;;14.60;86.70;;;;;;4970697;28;20046;-74
2022/09/23 22:27:08;;;;;;;0.00;0.00;;;14.60;85.30;;;;;;4975851;28;20490;-74
2022/09/23 22:35:04;;;;;;;0.65;0.57;;;14.60;85.10;;;;;;4973156;28;20041;-74
2022/09/23 22:37:33;;;;;;;0.00;0.00;;;14.60;84.50;;;;;;4972635;28;20033;-74
2022/09/23 22:40:00;;;;;;;0.22;0.22;;;14.70;84.30;;;;;;4973813;28;20155;-74
2022/09/23 22:42:26;;;;;;;0.00;0.00;;;14.70;85.10;;;;;;4972677;28;20394;-74
2022/09/23 22:44:54;;;;;;;0.00;0.00;;;14.70;84.20;;;;;;4975105;28;20058;-74
2022/09/23 22:47:20;;;;;;;0.10;0.10;;;14.70;84.50;;;;;;4974311;28;20047;-74
2022/09/23 22:49:47;;;;;;;0.25;0.25;;;14.70;84.00;;;;;;4974115;28;20059;-75
2022/09/23 22:52:14;;;;;;;0.00;0.00;;;14.70;83.10;;;;;;4975998;28;20041;-75
2022/09/23 22:54:41;;;;;;;0.00;0.00;;;14.70;83.30;;;;;;4976501;28;20023;-75
2022/09/23 22:57:07;;;;;;;0.15;0.15;;;14.70;83.90;;;;;;4977392;28;20098;-75
2022/09/23 22:59:34;;;;;;;0.00;0.00;;;14.70;84.10;;;;;;4977380;28;20039;-74
2022/09/23 23:02:01;;;;;;;0.00;0.00;;;14.80;84.30;;;;;;4976398;28;20035;-74
2022/09/23 23:04:28;;;;;;;0.08;0.08;;;14.80;84.00;;;;;;4977654;28;20037;-74
2022/09/23 23:06:55;;;;;;;0.00;0.00;;;14.80;82.90;;;;;;4960043;28;20089;-74
2022/09/23 23:09:21;;;;;;;0.43;0.22;;;14.80;84.30;;;;;;4977421;28;20493;-74
2022/09/23 23:11:47;;;;;;;0.00;0.00;;;14.80;84.00;;;;;;4977430;28;20035;-74
2022/09/23 23:14:16;;;;;;;0.00;0.00;;;14.80;84.60;;;;;;4976129;28;20415;-74
2022/09/23 23:16:44;;;;;;;0.08;0.08;;;14.80;84.10;;;;;;4977247;28;20038;-74
2022/09/23 23:19:12;;;;;;;0.00;0.00;;;14.80;84.80;;;;;;4960300;28;20042;-74
2022/09/23 23:21:39;;;;;;;0.03;0.03;;;14.70;84.00;;;;;;4977154;28;20097;-74
2022/09/23 23:24:05;;;;;;;0.00;0.00;;;14.70;86.10;;;;;;4960452;28;20125;-74
2022/09/23 23:26:32;;;;;;;0.00;0.00;;;14.80;84.90;;;;;;4979907;28;20085;-74
2022/09/23 23:29:00;;;;;;;0.00;0.00;;;14.70;84.50;;;;;;4979848;28;20039;-75
2022/09/23 23:31:28;;;;;;;0.28;0.28;;;14.60;84.80;;;;;;4980514;28;20023;-75
2022/09/23 23:33:54;;;;;;;0.20;0.20;;;14.60;85.50;;;;;;4979574;28;20349;-74
2022/09/23 23:36:21;;;;;;;0.00;0.00;;;14.60;85.00;;;;;;4979565;28;20117;-74
2022/09/23 23:38:48;;;;;;;1.25;0.20;;;14.60;84.20;;;;;;4980672;28;20342;-74
2022/09/23 23:41:16;;;;;;;0.00;0.00;;;14.60;83.60;;;;;;4963435;28;20334;-74
2022/09/23 23:43:48;;;;;;;0.00;0.00;;;14.50;85.00;;;;;;4979397;28;20113;-74
2022/09/23 23:46:14;;;;;;;0.00;0.00;;;14.40;85.80;;;;;;4963881;28;20042;-74
2022/09/23 23:48:44;;;;;;;0.47;0.47;;;14.20;86.80;;;;;;4980642;28;20043;-74
2022/09/23 23:51:10;;;;;;;0.00;0.00;;;14.20;87.20;;;;;;4963314;28;20040;-74
2022/09/23 23:53:38;;;;;;;0.15;0.10;;;14.10;87.20;;;;;;4963189;28;20168;-74
2022/09/23 23:56:06;;;;;;;0.00;0.00;;;14.00;87.10;;;;;;4980188;28;20046;-74
2022/09/23 23:58:32;;;;;;;0.00;0.00;;;14.00;87.30;;;;;;4980358;28;20033;-75
